Time;durP1;ratioP1;P1;durP2;ratioP2;P2;SDS_P1;SDS_P2;PMS_P1;PMS_P2;Temp;Humidity;BMP_temperature;BMP_pressure;BME280_temperature;BME280_humidity;BME280_pressure;Samples;Min_cycle;Max_cycle;Signal;HPM_P1;HPM_P2
2021/09/09 00:01:32;;;;;;;6.17;5.57;;;21.90;99.90;;;;;;5012450;28;20479;-72
2021/09/09 00:04:00;;;;;;;8.20;6.50;;;21.90;99.90;;;;;;5011415;28;20493;-72
2021/09/09 00:06:27;;;;;;;7.53;6.35;;;21.90;99.90;;;;;;5030489;28;20723;-73
2021/09/09 00:08:54;;;;;;;6.83;6.23;;;21.80;99.90;;;;;;5031447;28;20199;-72
2021/09/09 00:11:21;;;;;;;5.72;5.20;;;21.80;99.90;;;;;;5021051;28;20512;-72
2021/09/09 00:13:47;;;;;;;7.17;6.57;;;21.80;99.90;;;;;;5034009;28;20273;-72
2021/09/09 00:16:14;;;;;;;6.72;6.10;;;21.80;99.90;;;;;;5021071;28;20463;-72
2021/09/09 00:18:41;;;;;;;7.07;6.38;;;21.80;99.90;;;;;;5020594;28;20658;-72
2021/09/09 00:21:09;;;;;;;6.80;6.18;;;21.80;99.90;;;;;;5019839;28;20575;-72
2021/09/09 00:23:35;;;;;;;7.53;6.53;;;21.80;99.90;;;;;;5032621;28;20196;-72
2021/09/09 00:26:04;;;;;;;7.57;6.65;;;21.70;99.90;;;;;;5028577;28;20208;-72
2021/09/09 00:28:30;;;;;;;7.30;6.60;;;21.70;99.90;;;;;;5015316;28;20207;-72
2021/09/09 00:30:57;;;;;;;6.60;6.00;;;21.70;99.90;;;;;;5033440;28;20226;-72
2021/09/09 00:33:24;;;;;;;7.63;6.82;;;21.70;99.90;;;;;;5029581;28;20605;-71
2021/09/09 00:35:51;;;;;;;6.65;6.03;;;21.60;99.90;;;;;;5024006;28;20267;-72
2021/09/09 00:38:19;;;;;;;7.18;5.78;;;21.60;99.90;;;;;;5019685;28;20211;-71
2021/09/09 00:40:45;;;;;;;6.38;5.78;;;21.60;99.90;;;;;;5030953;28;21960;-71
2021/09/09 00:43:12;;;;;;;7.70;6.07;;;21.60;99.90;;;;;;5028522;28;20196;-71
2021/09/09 00:45:39;;;;;;;6.70;6.00;;;21.60;99.90;;;;;;5034038;28;20243;-71
2021/09/09 00:48:06;;;;;;;7.13;6.53;;;21.50;99.90;;;;;;5022842;28;20200;-72
2021/09/09 00:50:33;;;;;;;7.30;6.43;;;21.50;99.90;;;;;;5019376;28;20192;-72
2021/09/09 00:52:59;;;;;;;6.63;5.97;;;21.50;99.90;;;;;;5018377;28;20197;-71
2021/09/09 00:55:28;;;;;;;7.00;6.07;;;21.50;99.90;;;;;;5019981;28;20200;-72
2021/09/09 00:57:55;;;;;;;7.35;6.63;;;21.50;99.90;;;;;;5020994;28;20196;-72
2021/09/09 01:00:21;;;;;;;5.45;4.95;;;21.50;99.90;;;;;;5023689;28;20685;-72
2021/09/09 01:02:48;;;;;;;6.50;6.00;;;21.50;99.90;;;;;;5018954;28;20188;-72
2021/09/09 01:05:15;;;;;;;12.13;7.35;;;21.50;99.90;;;;;;5013458;28;20263;-72
2021/09/09 01:07:42;;;;;;;7.88;7.13;;;21.50;99.90;;;;;;5020042;28;20188;-71
2021/09/09 01:10:09;;;;;;;6.53;5.93;;;21.50;99.90;;;;;;5027034;28;20210;-71
2021/09/09 01:12:37;;;;;;;6.90;6.30;;;21.40;99.90;;;;;;5028521;28;20200;-71
2021/09/09 01:15:05;;;;;;;7.53;6.82;;;21.40;99.90;;;;;;5015061;28;20247;-71
2021/09/09 01:17:32;;;;;;;6.43;5.78;;;21.40;99.90;;;;;;5018858;28;20219;-72
2021/09/09 01:19:59;;;;;;;6.75;6.25;;;21.40;99.90;;;;;;5018136;28;20298;-71
2021/09/09 01:22:26;;;;;;;6.70;6.03;;;21.40;99.90;;;;;;5029878;28;20224;-71
2021/09/09 01:24:54;;;;;;;7.33;6.70;;;21.40;99.90;;;;;;5031240;28;20645;-71
2021/09/09 01:27:21;;;;;;;7.45;6.65;;;21.30;99.90;;;;;;5028560;28;20466;-72
2021/09/09 01:29:48;;;;;;;7.35;6.57;;;21.30;99.90;;;;;;5013832;28;20193;-72
2021/09/09 01:32:15;;;;;;;6.43;5.82;;;21.40;99.90;;;;;;5018509;28;20668;-72
2021/09/09 01:34:42;;;;;;;6.80;6.20;;;21.30;99.90;;;;;;5032536;28;20203;-71
2021/09/09 01:37:10;;;;;;;6.65;6.05;;;21.30;99.90;;;;;;5030204;28;20215;-72
2021/09/09 01:39:38;;;;;;;8.48;7.57;;;21.30;99.90;;;;;;5013960;28;20276;-72
2021/09/09 01:42:06;;;;;;;9.27;7.90;;;21.30;99.90;;;;;;5013576;28;20221;-72
2021/09/09 01:44:33;;;;;;;8.40;7.50;;;21.20;99.90;;;;;;5028775;28;20200;-72
2021/09/09 01:47:00;;;;;;;7.03;6.32;;;21.20;99.90;;;;;;5030516;28;20196;-72
2021/09/09 01:49:27;;;;;;;7.30;6.70;;;21.20;99.90;;;;;;5032356;28;20192;-72
2021/09/09 01:51:54;;;;;;;7.85;6.30;;;21.20;99.90;;;;;;5026971;28;20713;-72
2021/09/09 01:54:22;;;;;;;7.68;6.93;;;21.20;99.90;;;;;;5029658;28;20612;-72
2021/09/09 01:56:49;;;;;;;6.90;6.20;;;21.20;99.90;;;;;;5026849;28;20251;-72
2021/09/09 02:02:08;;;;;;;7.50;6.78;;;21.10;99.90;;;;;;5105301;27;20343;-72
2021/09/09 02:04:35;;;;;;;7.03;6.40;;;21.10;99.90;;;;;;5076149;28;20191;-71
2021/09/09 02:07:02;;;;;;;7.00;6.30;;;21.10;99.90;;;;;;5084402;28;20198;-71
2021/09/09 02:09:28;;;;;;;7.03;6.32;;;21.10;99.90;;;;;;5085066;28;20246;-71
2021/09/09 02:11:55;;;;;;;7.07;6.38;;;21.10;99.90;;;;;;5082810;28;20235;-72
2021/09/09 02:14:21;;;;;;;6.85;6.00;;;21.10;99.90;;;;;;5086804;28;20243;-71
2021/09/09 02:16:48;;;;;;;7.63;6.55;;;21.00;99.90;;;;;;5086440;28;20194;-71
2021/09/09 02:19:16;;;;;;;10.98;7.60;;;21.00;99.90;;;;;;5083189;28;20194;-71
2021/09/09 02:21:43;;;;;;;7.90;6.80;;;21.00;99.90;;;;;;5080895;28;20691;-71
2021/09/09 02:24:09;;;;;;;9.07;7.18;;;21.00;99.90;;;;;;5086674;28;20563;-72
2021/09/09 02:26:36;;;;;;;8.52;7.43;;;21.00;99.90;;;;;;5080264;28;20229;-72
2021/09/09 02:29:03;;;;;;;9.20;7.50;;;20.90;99.90;;;;;;5087951;28;20194;-72
2021/09/09 02:31:30;;;;;;;8.07;7.28;;;20.90;99.90;;;;;;5088636;28;20213;-72
2021/09/09 02:33:56;;;;;;;9.18;8.02;;;20.90;99.90;;;;;;5086168;28;20206;-72
2021/09/09 02:36:24;;;;;;;7.22;6.07;;;20.90;99.90;;;;;;5076487;28;20244;-72
2021/09/09 02:38:51;;;;;;;7.95;7.25;;;20.90;99.90;;;;;;5087845;28;20190;-72
2021/09/09 02:41:18;;;;;;;8.48;7.22;;;20.80;99.90;;;;;;5082879;28;20574;-72
2021/09/09 02:43:44;;;;;;;8.23;7.53;;;20.80;99.90;;;;;;5086516;28;20186;-72
2021/09/09 02:46:11;;;;;;;8.55;7.70;;;20.80;99.90;;;;;;5082062;28;20198;-72
2021/09/09 02:48:37;;;;;;;8.50;7.70;;;20.80;99.90;;;;;;5067218;28;20187;-72
2021/09/09 02:51:04;;;;;;;8.43;7.63;;;20.80;99.90;;;;;;5067988;28;20228;-71
2021/09/09 02:53:32;;;;;;;7.88;7.13;;;20.80;99.90;;;;;;5083589;28;20601;-71
2021/09/09 02:55:59;;;;;;;9.32;7.93;;;20.70;99.90;;;;;;5084002;28;20606;-71
2021/09/09 02:58:25;;;;;;;9.25;8.27;;;20.70;99.90;;;;;;5087509;28;20186;-72
2021/09/09 03:00:52;;;;;;;8.65;7.75;;;20.70;99.90;;;;;;5091535;28;20247;-72
2021/09/09 03:03:20;;;;;;;8.75;7.95;;;20.70;99.90;;;;;;5107791;28;20189;-72
2021/09/09 03:05:47;;;;;;;7.70;6.90;;;20.70;99.90;;;;;;5088423;28;20636;-72
2021/09/09 03:08:14;;;;;;;8.05;7.25;;;20.70;99.90;;;;;;5102265;28;20209;-72
2021/09/09 03:10:42;;;;;;;7.55;6.75;;;20.70;99.90;;;;;;5095211;28;20662;-72
2021/09/09 03:13:08;;;;;;;8.85;8.00;;;20.70;99.90;;;;;;5094513;28;20198;-72
2021/09/09 03:15:35;;;;;;;9.85;8.95;;;20.60;99.90;;;;;;5081635;28;20195;-72
2021/09/09 03:18:02;;;;;;;8.40;7.60;;;20.60;99.90;;;;;;5087358;28;20573;-72
2021/09/09 03:20:29;;;;;;;8.80;7.70;;;20.60;99.90;;;;;;5073693;28;20268;-72
2021/09/09 03:22:55;;;;;;;9.98;8.25;;;20.60;99.90;;;;;;5083342;28;20609;-72
2021/09/09 03:25:22;;;;;;;9.25;8.30;;;20.50;99.90;;;;;;5089460;28;20597;-72
2021/09/09 03:27:50;;;;;;;8.50;7.60;;;20.50;99.90;;;;;;5085349;28;20488;-72
2021/09/09 03:30:17;;;;;;;8.90;7.97;;;20.50;99.90;;;;;;5091837;28;20202;-72
2021/09/09 03:32:43;;;;;;;7.65;6.85;;;20.50;99.90;;;;;;5091489;28;20190;-71
2021/09/09 03:35:10;;;;;;;8.45;7.32;;;20.50;99.90;;;;;;5088093;28;20194;-71
2021/09/09 03:37:37;;;;;;;9.40;7.60;;;20.50;99.90;;;;;;5092956;28;20613;-71
2021/09/09 03:40:05;;;;;;;8.98;8.18;;;20.40;99.90;;;;;;5085564;28;20195;-71
2021/09/09 03:42:31;;;;;;;7.43;6.72;;;20.40;99.90;;;;;;5090741;28;20233;-71
2021/09/09 03:44:59;;;;;;;8.73;7.85;;;20.40;99.90;;;;;;5093504;28;20220;-71
2021/09/09 03:47:26;;;;;;;7.32;6.63;;;20.40;99.90;;;;;;5089324;28;20191;-71
2021/09/09 03:49:53;;;;;;;8.23;7.40;;;20.40;99.90;;;;;;5085251;28;20198;-71
2021/09/09 03:52:19;;;;;;;8.85;7.95;;;20.40;99.90;;;;;;5091434;28;20560;-71
2021/09/09 03:54:46;;;;;;;9.43;8.45;;;20.40;99.90;;;;;;5090373;28;20621;-71
2021/09/09 03:57:13;;;;;;;8.73;7.93;;;20.30;99.90;;;;;;5089699;28;20249;-71
2021/09/09 03:59:39;;;;;;;8.25;7.45;;;20.30;99.90;;;;;;5083250;28;20198;-71
2021/09/09 04:02:07;;;;;;;8.38;7.55;;;20.30;99.90;;;;;;5090495;28;20214;-72
2021/09/09 04:04:34;;;;;;;8.52;7.72;;;20.30;99.90;;;;;;5090909;28;20198;-72
2021/09/09 04:07:01;;;;;;;7.95;7.15;;;20.30;99.90;;;;;;5084687;28;20244;-71
2021/09/09 04:09:28;;;;;;;9.02;8.13;;;20.30;99.90;;;;;;5072539;28;20203;-72
2021/09/09 04:11:54;;;;;;;10.20;7.95;;;20.30;99.90;;;;;;5087138;28;20201;-72
2021/09/09 04:14:21;;;;;;;9.48;8.48;;;20.20;99.90;;;;;;5092656;28;20247;-72
2021/09/09 04:16:48;;;;;;;8.77;7.88;;;20.20;99.90;;;;;;5092565;28;20194;-71
2021/09/09 04:19:16;;;;;;;9.07;8.10;;;20.20;99.90;;;;;;5089017;28;20217;-72
2021/09/09 04:21:43;;;;;;;8.40;7.60;;;20.20;99.90;;;;;;5081914;28;20616;-72
2021/09/09 04:24:09;;;;;;;7.68;6.97;;;20.20;99.90;;;;;;5091106;28;20678;-72
2021/09/09 04:26:36;;;;;;;8.65;7.78;;;20.20;99.90;;;;;;5075947;28;20244;-72
2021/09/09 04:29:03;;;;;;;8.57;7.68;;;20.20;99.90;;;;;;5092370;28;20194;-71
2021/09/09 04:31:29;;;;;;;8.98;7.75;;;20.10;99.90;;;;;;5079493;28;20209;-71
2021/09/09 04:33:56;;;;;;;9.65;8.65;;;20.10;99.90;;;;;;5087167;28;20853;-71
2021/09/09 04:36:24;;;;;;;8.15;7.05;;;20.10;99.90;;;;;;5076822;28;20194;-71
2021/09/09 04:38:51;;;;;;;9.60;8.55;;;20.10;99.90;;;;;;5092561;28;20202;-74
2021/09/09 04:41:18;;;;;;;8.50;7.57;;;20.00;99.90;;;;;;5091618;28;20237;-71
2021/09/09 04:43:44;;;;;;;8.57;7.78;;;20.00;99.90;;;;;;5091837;28;20198;-71
2021/09/09 04:46:11;;;;;;;8.05;7.25;;;20.00;99.90;;;;;;5077676;28;20191;-71
2021/09/09 04:48:38;;;;;;;7.18;6.47;;;20.00;99.90;;;;;;5088821;28;20255;-71
2021/09/09 04:51:05;;;;;;;8.05;7.25;;;20.00;99.90;;;;;;5085572;28;21631;-71
2021/09/09 04:53:33;;;;;;;8.35;7.55;;;20.00;99.90;;;;;;5092221;28;20190;-71
2021/09/09 04:56:00;;;;;;;9.00;8.20;;;20.00;99.90;;;;;;5087907;28;20194;-71
2021/09/09 04:58:27;;;;;;;8.00;7.25;;;19.90;99.90;;;;;;5090073;28;20194;-71
2021/09/09 05:00:54;;;;;;;8.88;7.97;;;20.00;99.90;;;;;;5090270;28;20321;-71
2021/09/09 05:03:21;;;;;;;8.15;7.35;;;19.90;99.90;;;;;;5086397;28;20187;-72
2021/09/09 05:05:48;;;;;;;9.95;7.93;;;19.90;99.90;;;;;;5090703;28;20593;-72
2021/09/09 05:08:14;;;;;;;7.90;7.10;;;19.90;99.90;;;;;;5091290;28;20513;-72
2021/09/09 05:10:42;;;;;;;8.63;7.82;;;19.80;99.90;;;;;;5086903;28;20578;-71
2021/09/09 05:13:09;;;;;;;8.38;7.57;;;19.80;99.90;;;;;;5089188;28;20248;-71
2021/09/09 05:15:36;;;;;;;7.95;7.15;;;19.80;99.90;;;;;;5092371;28;20243;-71
2021/09/09 05:18:03;;;;;;;8.85;7.95;;;19.80;99.90;;;;;;5091948;28;20622;-73
2021/09/09 05:20:29;;;;;;;8.00;7.20;;;19.80;99.90;;;;;;5090105;28;20275;-71
2021/09/09 05:22:56;;;;;;;8.43;7.55;;;19.80;99.90;;;;;;5091294;28;20220;-71
2021/09/09 05:25:23;;;;;;;9.32;8.38;;;19.80;99.90;;;;;;5080244;28;20571;-71
2021/09/09 05:27:51;;;;;;;8.55;7.55;;;19.80;99.90;;;;;;5084918;28;20406;-71
2021/09/09 05:30:17;;;;;;;8.82;7.93;;;19.80;99.90;;;;;;5090044;28;20190;-71
2021/09/09 05:32:44;;;;;;;7.68;6.97;;;19.80;99.90;;;;;;5089923;28;20210;-71
2021/09/09 05:35:11;;;;;;;10.05;7.78;;;19.80;99.90;;;;;;5080171;28;20195;-71
2021/09/09 05:37:38;;;;;;;8.18;7.47;;;19.70;99.90;;;;;;5081593;28;20198;-71
2021/09/09 05:40:06;;;;;;;7.95;7.03;;;19.80;99.90;;;;;;5078554;28;20205;-71
2021/09/09 05:42:33;;;;;;;8.95;7.25;;;19.70;99.90;;;;;;5090316;28;20221;-71
2021/09/09 05:45:01;;;;;;;9.23;8.32;;;19.70;99.90;;;;;;5091846;28;20194;-71
2021/09/09 05:47:27;;;;;;;9.55;8.65;;;19.70;99.90;;;;;;5091720;28;20251;-72
2021/09/09 05:49:54;;;;;;;8.48;7.57;;;19.70;99.90;;;;;;5083730;28;20198;-71
2021/09/09 05:52:21;;;;;;;8.95;8.02;;;19.70;99.90;;;;;;5088732;28;20202;-71
2021/09/09 05:54:48;;;;;;;9.20;8.25;;;19.70;99.90;;;;;;5085365;28;20199;-71
2021/09/09 05:57:15;;;;;;;8.30;7.43;;;19.90;99.90;;;;;;5071371;28;20220;-71
2021/09/09 05:59:41;;;;;;;8.15;7.35;;;20.10;99.90;;;;;;5080306;28;20243;-71
2021/09/09 06:02:17;;;;;;;9.02;8.13;;;20.30;99.90;;;;;;5085482;28;20214;-71
2021/09/09 06:04:44;;;;;;;9.15;8.02;;;20.40;99.90;;;;;;5080804;28;20198;-71
2021/09/09 06:07:11;;;;;;;7.72;6.93;;;20.60;99.90;;;;;;5089420;28;20210;-72
2021/09/09 06:09:39;;;;;;;7.20;6.50;;;20.80;99.90;;;;;;5082057;28;20187;-71
2021/09/09 06:12:06;;;;;;;9.55;8.48;;;20.90;99.90;;;;;;5088153;28;20209;-71
2021/09/09 06:14:33;;;;;;;8.77;7.70;;;21.10;99.90;;;;;;5083860;28;20195;-71
2021/09/09 06:17:00;;;;;;;8.77;7.88;;;21.30;99.90;;;;;;5091463;28;20198;-72
2021/09/09 06:19:28;;;;;;;8.43;7.60;;;21.40;99.90;;;;;;5087427;28;20578;-72
2021/09/09 06:21:54;;;;;;;8.23;7.43;;;21.40;99.90;;;;;;5090434;28;20213;-72
2021/09/09 06:24:21;;;;;;;8.48;7.63;;;21.60;99.90;;;;;;5072548;28;20235;-72
2021/09/09 06:26:48;;;;;;;7.80;7.00;;;21.70;99.90;;;;;;5088923;28;20248;-71
2021/09/09 06:29:14;;;;;;;8.70;7.90;;;21.80;99.90;;;;;;5090992;28;20654;-72
2021/09/09 06:31:41;;;;;;;8.07;7.27;;;21.90;99.90;;;;;;5090748;28;20941;-72
2021/09/09 06:34:08;;;;;;;9.35;8.20;;;22.00;99.90;;;;;;5078235;28;20457;-71
2021/09/09 06:36:36;;;;;;;10.73;8.20;;;22.00;99.90;;;;;;5089643;28;20194;-72
2021/09/09 06:39:03;;;;;;;7.80;7.10;;;22.20;99.90;;;;;;5089567;28;20514;-74
2021/09/09 06:41:30;;;;;;;8.17;7.37;;;22.20;99.90;;;;;;5083889;28;21016;-71
2021/09/09 06:43:56;;;;;;;9.70;8.70;;;22.30;99.90;;;;;;5089915;28;20456;-71
2021/09/09 06:46:23;;;;;;;7.43;6.70;;;22.40;99.90;;;;;;5091037;28;20440;-71
2021/09/09 06:48:50;;;;;;;7.43;6.70;;;22.50;99.90;;;;;;5094222;28;20432;-71
2021/09/09 06:51:19;;;;;;;8.93;6.80;;;22.60;99.90;;;;;;5086338;28;20460;-71
2021/09/09 06:53:47;;;;;;;11.90;7.40;;;22.60;99.90;;;;;;5093273;28;20744;-71
2021/09/09 06:56:13;;;;;;;6.70;6.10;;;22.70;99.90;;;;;;5077316;28;20456;-71
2021/09/09 06:58:40;;;;;;;6.83;6.13;;;22.70;99.90;;;;;;5080298;28;20448;-71
2021/09/09 07:01:07;;;;;;;6.67;6.07;;;22.80;99.90;;;;;;5092859;28;20955;-71
2021/09/09 07:03:33;;;;;;;7.40;6.70;;;22.80;99.90;;;;;;5084568;28;20961;-71
2021/09/09 07:06:00;;;;;;;7.73;7.00;;;23.00;99.90;;;;;;5094748;28;20493;-71
2021/09/09 07:08:27;;;;;;;7.33;6.63;;;23.00;99.90;;;;;;5091379;28;20846;-71
2021/09/09 07:10:55;;;;;;;7.63;6.93;;;23.10;99.90;;;;;;5082165;28;20464;-72
2021/09/09 07:13:23;;;;;;;7.10;6.47;;;23.10;99.90;;;;;;5093916;28;20501;-71
2021/09/09 07:15:50;;;;;;;7.70;7.00;;;23.20;99.90;;;;;;5091264;28;20571;-72
2021/09/09 07:18:16;;;;;;;7.57;6.87;;;23.30;99.90;;;;;;5092677;28;20460;-71
2021/09/09 07:20:43;;;;;;;6.40;5.80;;;23.30;99.90;;;;;;5080993;28;20468;-71
2021/09/09 07:23:10;;;;;;;7.10;6.50;;;23.40;99.90;;;;;;5090106;28;20467;-71
2021/09/09 07:25:36;;;;;;;6.93;6.30;;;23.40;99.90;;;;;;5081012;28;20468;-71
2021/09/09 07:28:05;;;;;;;6.80;6.13;;;23.50;99.90;;;;;;5084865;28;20977;-71
2021/09/09 07:30:32;;;;;;;8.23;6.70;;;23.60;99.90;;;;;;5093255;28;20514;-71
2021/09/09 07:32:59;;;;;;;9.17;6.03;;;23.60;99.90;;;;;;5092688;28;20452;-71
2021/09/09 07:35:26;;;;;;;7.87;7.17;;;23.70;99.90;;;;;;5090997;28;20456;-71
2021/09/09 07:37:52;;;;;;;7.70;6.90;;;23.80;99.90;;;;;;5093723;28;20448;-71
2021/09/09 07:40:19;;;;;;;6.53;5.93;;;23.80;99.90;;;;;;5086766;28;20456;-71
2021/09/09 07:42:46;;;;;;;7.90;7.20;;;23.90;99.90;;;;;;5085811;28;20465;-71
2021/09/09 07:45:14;;;;;;;6.33;5.73;;;23.90;99.90;;;;;;5093587;28;20440;-71
2021/09/09 07:47:41;;;;;;;6.20;5.60;;;24.00;99.90;;;;;;5091452;28;20432;-71
2021/09/09 07:50:09;;;;;;;6.43;5.83;;;24.00;99.90;;;;;;5081417;28;20461;-71
2021/09/09 07:52:36;;;;;;;7.00;6.40;;;24.00;99.90;;;;;;5079935;28;20487;-71
2021/09/09 07:55:03;;;;;;;6.73;6.13;;;24.10;99.90;;;;;;5073246;28;20869;-71
2021/09/09 07:57:29;;;;;;;7.27;6.57;;;24.10;99.90;;;;;;5073223;28;20433;-71
2021/09/09 07:59:56;;;;;;;7.17;6.57;;;24.20;99.90;;;;;;5075132;28;20507;-71
2021/09/09 08:02:24;;;;;;;6.77;6.07;;;24.20;99.90;;;;;;5085717;28;20880;-71
2021/09/09 08:04:51;;;;;;;7.17;6.47;;;24.20;99.90;;;;;;5089294;28;20468;-71
2021/09/09 08:07:18;;;;;;;7.40;6.70;;;24.20;99.90;;;;;;5089280;28;20460;-71
2021/09/09 08:09:45;;;;;;;7.13;5.87;;;24.30;99.90;;;;;;5088082;28;20519;-71
2021/09/09 08:12:11;;;;;;;7.67;6.30;;;24.30;99.90;;;;;;5092018;28;21478;-71
2021/09/09 08:14:38;;;;;;;6.47;5.87;;;24.30;99.90;;;;;;5093745;28;20512;-70
2021/09/09 08:17:05;;;;;;;6.63;6.03;;;24.30;99.90;;;;;;5082205;28;20853;-70
2021/09/09 08:19:33;;;;;;;6.23;5.63;;;24.40;99.90;;;;;;5079636;28;20480;-71
2021/09/09 08:22:00;;;;;;;7.10;6.40;;;24.40;99.90;;;;;;5086870;28;20510;-71
2021/09/09 08:24:26;;;;;;;5.73;5.23;;;24.50;99.90;;;;;;5087962;28;20536;-71
2021/09/09 08:26:53;;;;;;;6.20;5.60;;;24.50;99.90;;;;;;5072873;28;20445;-71
2021/09/09 08:29:20;;;;;;;6.47;5.70;;;24.50;99.90;;;;;;5088514;28;20690;-71
2021/09/09 08:31:46;;;;;;;9.57;6.07;;;24.50;99.90;;;;;;5083469;28;20521;-71
2021/09/09 08:34:13;;;;;;;6.53;5.83;;;24.50;99.90;;;;;;5080147;28;20457;-71
2021/09/09 08:36:41;;;;;;;5.87;5.20;;;24.50;99.90;;;;;;5081558;28;20444;-71
2021/09/09 08:39:08;;;;;;;5.97;5.37;;;24.60;99.90;;;;;;5091221;28;20451;-71
2021/09/09 08:41:35;;;;;;;5.70;4.97;;;24.60;99.90;;;;;;5078104;28;20459;-73
2021/09/09 08:44:02;;;;;;;6.23;5.63;;;24.70;99.90;;;;;;5092399;28;20493;-72
2021/09/09 08:46:29;;;;;;;6.40;5.80;;;24.60;99.90;;;;;;5091540;28;20452;-72
2021/09/09 08:48:57;;;;;;;5.90;5.40;;;24.60;99.90;;;;;;5076069;28;20803;-71
2021/09/09 08:51:24;;;;;;;5.70;5.20;;;24.70;99.90;;;;;;5089912;28;20436;-80
2021/09/09 08:53:53;;;;;;;6.23;5.53;;;24.80;99.90;;;;;;5087541;28;20453;-78
2021/09/09 08:56:19;;;;;;;5.73;5.23;;;24.80;99.90;;;;;;5083406;28;20453;-78
2021/09/09 08:58:46;;;;;;;10.10;5.70;;;24.80;99.90;;;;;;5078501;28;20452;-77
2021/09/09 09:01:14;;;;;;;6.00;5.40;;;24.80;99.90;;;;;;5093231;28;20842;-77
2021/09/09 09:03:47;;;;;;;7.17;5.60;;;24.80;99.90;;;;;;5090197;28;20529;-80
2021/09/09 09:06:36;;;;;;;6.23;5.53;;;24.90;99.90;;;;;;5092809;28;20498;-76
2021/09/09 09:09:09;;;;;;;5.97;5.37;;;24.90;99.90;;;;;;5075795;28;20449;-76
2021/09/09 09:11:41;;;;;;;6.10;5.50;;;24.90;99.90;;;;;;5083391;28;20513;-77
2021/09/09 09:14:10;;;;;;;5.90;5.30;;;24.90;99.90;;;;;;5090618;28;20459;-72
2021/09/09 09:16:42;;;;;;;6.33;5.30;;;24.90;99.90;;;;;;5092203;28;20440;-72
2021/09/09 09:19:11;;;;;;;8.00;6.77;;;24.90;99.90;;;;;;5085646;28;20539;-72
2021/09/09 09:21:42;;;;;;;6.83;6.23;;;24.90;99.90;;;;;;5085557;28;20502;-72
2021/09/09 09:24:10;;;;;;;5.70;5.20;;;24.90;99.90;;;;;;5089244;28;20480;-72
2021/09/09 09:26:37;;;;;;;6.63;6.03;;;24.90;99.90;;;;;;5091683;28;20839;-72
2021/09/09 09:29:04;;;;;;;5.47;4.97;;;24.90;99.90;;;;;;5090027;28;20440;-72
2021/09/09 09:31:32;;;;;;;5.53;4.97;;;24.90;99.90;;;;;;5085062;28;20452;-72
2021/09/09 09:34:00;;;;;;;6.30;5.70;;;24.90;99.90;;;;;;5082682;28;20965;-72
2021/09/09 09:36:29;;;;;;;6.67;6.07;;;24.90;99.90;;;;;;5096117;28;20502;-72
2021/09/09 09:39:04;;;;;;;6.73;6.07;;;24.90;99.90;;;;;;5091009;28;20445;-72
2021/09/09 09:41:32;;;;;;;7.27;5.47;;;24.90;99.90;;;;;;5076856;28;20448;-72
2021/09/09 09:44:03;;;;;;;6.50;5.30;;;24.90;99.90;;;;;;5084776;28;20472;-72
2021/09/09 09:46:32;;;;;;;6.77;5.90;;;24.90;99.90;;;;;;5090386;28;20825;-72
2021/09/09 09:49:25;;;;;;;6.70;6.10;;;24.80;99.90;;;;;;5087927;28;20973;-72
2021/09/09 09:51:53;;;;;;;6.87;6.27;;;24.80;99.90;;;;;;5090096;28;20444;-72
2021/09/09 09:54:21;;;;;;;7.00;6.40;;;24.80;99.90;;;;;;5087654;28;20487;-72
2021/09/09 09:56:50;;;;;;;6.23;5.63;;;24.90;99.90;;;;;;5074224;28;20941;-72
2021/09/09 09:59:17;;;;;;;7.20;6.50;;;24.80;99.90;;;;;;5081622;28;20530;-73
2021/09/09 10:01:44;;;;;;;5.90;5.30;;;24.80;99.90;;;;;;5089999;28;20807;-73
2021/09/09 10:04:15;;;;;;;6.43;4.90;;;24.80;99.90;;;;;;5080019;28;20892;-72
2021/09/09 10:06:43;;;;;;;6.50;5.90;;;24.80;99.90;;;;;;5072109;28;20432;-72
2021/09/09 10:09:09;;;;;;;6.67;5.87;;;24.80;99.90;;;;;;5079562;28;20564;-71
2021/09/09 10:11:36;;;;;;;6.77;6.17;;;24.80;99.90;;;;;;5083554;28;20547;-71
2021/09/09 10:14:06;;;;;;;6.10;5.43;;;24.80;99.90;;;;;;5087846;28;20576;-72
2021/09/09 10:16:37;;;;;;;7.07;5.87;;;24.80;99.90;;;;;;5076949;28;20441;-71
2021/09/09 10:19:04;;;;;;;6.40;5.80;;;24.80;99.90;;;;;;5076137;28;20860;-71
2021/09/09 10:21:39;;;;;;;6.13;5.47;;;24.80;99.90;;;;;;5085045;28;20457;-72
2021/09/09 10:24:15;;;;;;;6.07;5.47;;;24.80;99.90;;;;;;5080152;28;20480;-72
2021/09/09 10:26:42;;;;;;;7.83;6.17;;;24.70;99.90;;;;;;5090514;28;20433;-71
2021/09/09 10:29:46;;;;;;;7.00;6.30;;;24.70;99.90;;;;;;5089063;28;20564;-71
2021/09/09 10:32:56;;;;;;;4.87;4.40;;;24.70;99.90;;;;;;5082143;28;20458;-72
2021/09/09 10:35:37;;;;;;;6.27;5.77;;;24.60;99.90;;;;;;5064052;28;20455;-71
2021/09/09 10:38:40;;;;;;;6.60;6.00;;;24.70;99.90;;;;;;5077863;28;20825;-71
2021/09/09 10:41:07;;;;;;;6.80;6.07;;;24.60;99.90;;;;;;5024564;28;20509;-72
2021/09/09 10:43:50;;;;;;;7.90;7.10;;;24.70;99.90;;;;;;5025658;28;20540;-72
2021/09/09 10:46:19;;;;;;;6.70;6.10;;;24.60;99.90;;;;;;5063360;28;20823;-72
2021/09/09 10:49:03;;;;;;;7.67;6.67;;;24.60;99.90;;;;;;5095277;28;20517;-72
2021/09/09 10:51:29;;;;;;;6.90;6.20;;;24.60;99.90;;;;;;5091422;28;20547;-72
2021/09/09 10:53:57;;;;;;;5.87;5.27;;;24.60;99.90;;;;;;5091872;28;20976;-72
2021/09/09 10:56:26;;;;;;;7.73;6.50;;;24.60;99.90;;;;;;5090374;28;20456;-72
2021/09/09 10:59:12;;;;;;;6.87;6.03;;;24.60;99.90;;;;;;5093162;28;20863;-71
2021/09/09 11:01:43;;;;;;;10.17;7.00;;;24.60;99.90;;;;;;5093117;28;20538;-72
2021/09/09 11:04:25;;;;;;;6.40;5.80;;;24.60;99.90;;;;;;5096199;28;20533;-71
2021/09/09 11:06:52;;;;;;;6.20;5.60;;;24.60;99.90;;;;;;5087252;28;20543;-71
2021/09/09 11:09:19;;;;;;;7.00;6.40;;;24.60;99.90;;;;;;5086761;28;20443;-71
2021/09/09 11:11:55;;;;;;;7.10;6.40;;;24.60;99.90;;;;;;5088856;28;20563;-72
2021/09/09 11:14:24;;;;;;;6.50;5.50;;;24.70;99.90;;;;;;5092214;28;20455;-71
2021/09/09 11:16:53;;;;;;;7.00;6.20;;;24.60;99.90;;;;;;5086333;28;20436;-71
2021/09/09 11:19:21;;;;;;;6.70;5.57;;;24.60;99.90;;;;;;5092890;28;20892;-72
2021/09/09 11:21:48;;;;;;;5.87;5.30;;;24.60;99.90;;;;;;5089939;28;20972;-71
2021/09/09 11:24:16;;;;;;;6.93;6.27;;;24.60;99.90;;;;;;5076385;28;21030;-71
2021/09/09 11:26:45;;;;;;;6.33;5.73;;;24.70;99.90;;;;;;5091728;28;20953;-71
2021/09/09 11:29:12;;;;;;;8.10;5.20;;;24.60;99.90;;;;;;5087994;28;20861;-71
2021/09/09 11:31:45;;;;;;;5.87;5.37;;;24.60;99.90;;;;;;5093877;28;20440;-71
2021/09/09 11:34:13;;;;;;;6.27;5.77;;;24.60;99.90;;;;;;5080223;28;20476;-71
2021/09/09 11:36:42;;;;;;;7.10;6.50;;;24.60;99.90;;;;;;5081429;28;20506;-72
2021/09/09 11:39:11;;;;;;;6.63;5.93;;;24.70;99.90;;;;;;5092611;28;20456;-72
2021/09/09 11:41:40;;;;;;;6.10;5.50;;;24.60;99.90;;;;;;5090421;28;20463;-71
2021/09/09 11:44:09;;;;;;;6.47;5.83;;;24.60;99.90;;;;;;5078578;28;20476;-72
2021/09/09 11:46:38;;;;;;;13.40;7.10;;;24.60;99.90;;;;;;5089666;28;20456;-72
2021/09/09 11:49:06;;;;;;;5.80;5.20;;;24.60;99.90;;;;;;5082812;28;20492;-72
2021/09/09 11:51:40;;;;;;;7.87;6.40;;;24.60;99.90;;;;;;5091437;28;20573;-72
2021/09/09 11:54:08;;;;;;;6.50;5.70;;;24.60;99.90;;;;;;5090203;28;20569;-72
2021/09/09 11:56:36;;;;;;;7.63;5.23;;;24.60;99.90;;;;;;5088249;28;21694;-72
2021/09/09 11:59:03;;;;;;;6.53;5.93;;;24.50;99.90;;;;;;5081764;28;20444;-72
2021/09/09 12:01:32;;;;;;;6.80;5.77;;;24.50;99.90;;;;;;5090334;28;20491;-71
2021/09/09 12:04:00;;;;;;;6.10;5.60;;;24.50;99.90;;;;;;5080196;28;20570;-71
2021/09/09 12:06:27;;;;;;;7.43;6.60;;;24.50;99.90;;;;;;5093236;28;20447;-71
2021/09/09 12:08:55;;;;;;;7.33;5.07;;;24.60;99.90;;;;;;5085772;28;20448;-73
2021/09/09 12:11:22;;;;;;;6.83;6.20;;;24.60;99.90;;;;;;5084174;28;20461;-72
2021/09/09 12:13:49;;;;;;;5.93;5.33;;;24.60;99.90;;;;;;5092584;28;20537;-74
2021/09/09 12:16:18;;;;;;;6.60;6.00;;;24.60;99.90;;;;;;5091115;28;21018;-72
2021/09/09 12:18:47;;;;;;;12.33;6.37;;;24.70;99.90;;;;;;5093027;28;20451;-73
2021/09/09 12:21:16;;;;;;;8.90;6.43;;;24.70;99.90;;;;;;5092502;28;20859;-72
2021/09/09 12:24:05;;;;;;;6.60;5.90;;;24.70;99.90;;;;;;5091924;28;20464;-73
2021/09/09 12:26:34;;;;;;;5.63;5.13;;;24.70;99.90;;;;;;5084310;28;20452;-72
2021/09/09 12:29:13;;;;;;;10.77;6.30;;;24.80;99.90;;;;;;5081849;28;20437;-74
2021/09/09 12:31:40;;;;;;;5.73;5.23;;;24.70;99.90;;;;;;5092791;28;20527;-71
2021/09/09 12:34:10;;;;;;;8.33;5.43;;;24.80;99.90;;;;;;5084153;28;20456;-72
2021/09/09 12:36:42;;;;;;;7.07;5.90;;;24.80;99.90;;;;;;5084911;28;20442;-73
2021/09/09 12:39:11;;;;;;;7.97;6.70;;;24.70;99.90;;;;;;5085200;28;20851;-73
2021/09/09 12:41:38;;;;;;;6.67;6.07;;;24.80;99.90;;;;;;5091789;28;20871;-73
2021/09/09 12:44:16;;;;;;;9.47;6.10;;;24.80;99.90;;;;;;5090878;28;20530;-73
2021/09/09 12:46:45;;;;;;;6.80;5.77;;;24.80;99.90;;;;;;5077607;28;20527;-74
2021/09/09 12:49:14;;;;;;;6.83;5.33;;;24.80;99.90;;;;;;5086448;28;20485;-74
2021/09/09 12:51:42;;;;;;;8.33;7.17;;;24.80;99.90;;;;;;5089741;28;20443;-73
2021/09/09 12:54:11;;;;;;;6.17;5.67;;;24.80;99.90;;;;;;5084015;28;20456;-73